Time;durP1;ratioP1;P1;durP2;ratioP2;P2;SDS_P1;SDS_P2;PMS_P1;PMS_P2;Temp;Humidity;BMP_temperature;BMP_pressure;BME280_temperature;BME280_humidity;BME280_pressure;Samples;Min_cycle;Max_cycle;Signal;HPM_P1;HPM_P2
2021/12/31 00:02:22;;;;;;;4.57;1.10;;;;;;;15.81;94.14;100996.56;8404354;28;20048;-66
2021/12/31 00:06:23;;;;;;;5.63;1.10;;;;;;;15.79;93.90;100976.75;8422088;28;20479;-66
2021/12/31 00:10:23;;;;;;;5.95;1.50;;;;;;;15.68;93.57;100980.63;8421128;28;20051;-66
2021/12/31 00:14:25;;;;;;;3.78;0.95;;;;;;;15.71;92.71;100980.31;8404373;28;20402;-66
2021/12/31 00:18:25;;;;;;;12.20;1.48;;;;;;;15.68;92.48;100969.72;8422818;28;20028;-66
2021/12/31 00:23:05;;;;;;;2.88;0.60;;;;;;;15.74;91.54;100979.97;8423656;28;20043;-66
2021/12/31 00:26:46;;;;;;;2.95;0.80;;;;;;;15.73;91.77;100970.09;8422339;28;20031;-66
2021/12/31 00:30:52;;;;;;;2.57;0.73;;;;;;;15.67;92.36;100984.38;8423151;28;20028;-66
2021/12/31 00:34:53;;;;;;;3.67;1.10;;;;;;;15.61;92.48;100974.13;8423304;28;20317;-66
2021/12/31 00:38:53;;;;;;;3.53;1.20;;;;;;;15.59;92.84;100973.41;8446875;28;20534;-66
2021/12/31 00:42:54;;;;;;;5.57;1.80;;;;;;;15.55;93.29;100974.75;8457117;28;20039;-66
2021/12/31 00:46:55;;;;;;;2.90;1.30;;;;;;;15.50;93.84;100977.09;8438139;28;20695;-66
2021/12/31 00:50:56;;;;;;;5.95;1.30;;;;;;;15.51;93.31;100983.41;8424494;28;20032;-66
2021/12/31 00:54:57;;;;;;;3.67;0.93;;;;;;;15.53;92.91;100971.34;8389549;28;20167;-66
2021/12/31 00:58:57;;;;;;;6.10;1.27;;;;;;;15.59;92.54;100973.41;8398816;28;20036;-66
2021/12/31 01:02:57;;;;;;;3.53;0.98;;;;;;;15.52;92.95;100974.22;8419917;28;20503;-66
2021/12/31 01:06:59;;;;;;;4.93;1.10;;;;;;;15.50;92.57;100977.09;8402796;28;20495;-66
2021/12/31 01:11:00;;;;;;;4.47;1.00;;;;;;;15.44;93.10;100969.56;8395611;28;20127;-66
2021/12/31 01:15:05;;;;;;;2.03;0.73;;;;;;;15.47;92.95;100965.69;8391895;28;20043;-66
2021/12/31 01:23:18;;;;;;;3.05;1.00;;;;;;;15.47;92.16;100966.53;8414956;27;20177;-65
2021/12/31 01:27:19;;;;;;;5.40;1.08;;;;;;;15.45;92.39;100982.19;8412106;28;20407;-65
2021/12/31 01:31:21;;;;;;;3.13;0.90;;;;;;;15.44;92.34;100983.19;8419327;28;20036;-65
2021/12/31 01:35:21;;;;;;;1.63;0.85;;;;;;;15.41;92.83;100986.25;8413565;28;20339;-65
2021/12/31 01:39:22;;;;;;;2.15;0.77;;;;;;;15.33;93.50;100986.19;8415180;28;20885;-65
2021/12/31 01:43:23;;;;;;;7.35;1.00;;;;;;;15.37;92.97;100976.69;8397783;28;20047;-65
2021/12/31 01:47:34;;;;;;;2.55;0.95;;;;;;;15.40;92.96;100987.28;8392825;28;20500;-65
2021/12/31 01:51:34;;;;;;;2.70;0.90;;;;;;;15.35;93.89;100983.28;8397371;28;20037;-65
2021/12/31 01:55:35;;;;;;;4.82;1.00;;;;;;;15.35;93.64;100984.16;8384720;28;20080;-65
2021/12/31 01:59:37;;;;;;;2.00;1.50;;;;;;;15.26;94.75;100982.38;8385052;28;20069;-65
2021/12/31 02:03:38;;;;;;;3.67;0.90;;;;;;;15.26;94.69;100987.84;8399646;28;20043;-65
2021/12/31 02:07:39;;;;;;;1.63;0.90;;;;;;;15.23;95.45;100987.28;8417686;28;20040;-65
2021/12/31 02:11:40;;;;;;;3.97;1.35;;;;;;;15.20;96.10;100979.44;8417839;28;20040;-65
2021/12/31 02:15:41;;;;;;;2.25;0.93;;;;;;;15.20;96.16;100988.47;8417303;28;20040;-65
2021/12/31 02:19:54;;;;;;;4.38;1.10;;;;;;;15.28;95.03;100980.34;8417632;28;20086;-65
2021/12/31 02:24:02;;;;;;;3.75;1.20;;;;;;;15.24;94.92;100976.22;8416393;28;20048;-65
2021/12/31 02:28:02;;;;;;;7.03;1.45;;;;;;;15.24;95.32;100976.22;8417500;28;20037;-66
2021/12/31 02:32:03;;;;;;;5.10;1.35;;;;;;;15.23;95.56;100966.34;8409327;28;20116;-66
2021/12/31 02:36:06;;;;;;;3.75;1.13;;;;;;;15.25;95.24;100972.47;8383937;28;20048;-66
2021/12/31 02:40:09;;;;;;;3.38;1.98;;;;;;;15.19;95.45;100967.66;8375907;28;20511;-66
2021/12/31 02:44:09;;;;;;;3.97;1.23;;;;;;;15.15;96.11;100971.72;8368149;28;20029;-66
2021/12/31 02:48:10;;;;;;;2.22;1.23;;;;;;;15.10;96.66;100974.06;8361278;28;20090;-66
2021/12/31 02:52:12;;;;;;;3.53;1.10;;;;;;;15.15;96.23;100977.19;8389971;28;20043;-66
2021/12/31 02:56:13;;;;;;;4.15;1.23;;;;;;;15.14;96.41;100967.31;8394114;28;20396;-66
2021/12/31 03:00:14;;;;;;;3.88;1.42;;;;;;;15.17;96.04;100958.81;8394529;28;20052;-66
2021/12/31 03:04:16;;;;;;;3.58;1.13;;;;;;;15.20;95.77;100958.50;8373766;28;20044;-66
2021/12/31 03:08:17;;;;;;;2.90;1.30;;;;;;;15.10;95.73;100951.44;8360416;28;20037;-66
2021/12/31 03:12:17;;;;;;;4.45;1.38;;;;;;;15.04;96.07;100954.81;8376234;28;20052;-66
2021/12/31 03:16:20;;;;;;;4.25;1.05;;;;;;;15.05;96.66;100960.09;8369344;28;20083;-66
2021/12/31 03:20:36;;;;;;;3.65;0.95;;;;;;;15.16;95.70;100958.97;8392248;28;20120;-66
2021/12/31 03:24:37;;;;;;;4.07;1.00;;;;;;;15.29;94.85;100951.22;8392585;28;20048;-66
2021/12/31 03:28:37;;;;;;;3.03;1.10;;;;;;;15.18;95.31;100957.78;8371530;28;20068;-66
2021/12/31 03:32:38;;;;;;;1.85;1.00;;;;;;;15.15;95.57;100960.84;8360033;28;20486;-66
2021/12/31 03:36:38;;;;;;;3.13;1.27;;;;;;;15.17;95.49;100950.66;8365947;28;20037;-66
2021/12/31 03:40:39;;;;;;;6.40;1.30;;;;;;;15.05;96.03;100941.03;8372620;28;20492;-66
2021/12/31 03:44:40;;;;;;;5.60;1.38;;;;;;;15.07;96.00;100938.16;8388960;28;20037;-66
2021/12/31 03:48:41;;;;;;;4.82;1.10;;;;;;;15.03;96.34;100934.88;8389311;28;20063;-66
2021/12/31 03:52:41;;;;;;;5.65;1.27;;;;;;;15.00;96.45;100935.19;8391656;28;20336;-66
2021/12/31 03:56:42;;;;;;;5.22;1.63;;;;;;;15.08;95.63;100937.13;8391852;28;20060;-66
2021/12/31 04:00:45;;;;;;;2.88;1.20;;;;;;;15.12;95.32;100928.47;8392165;28;20445;-66
2021/12/31 04:04:46;;;;;;;4.18;1.23;;;;;;;15.07;95.75;100936.25;8367587;28;20033;-66
2021/12/31 04:08:47;;;;;;;5.53;1.17;;;;;;;15.08;95.24;100937.13;8358346;28;20037;-66
2021/12/31 04:12:47;;;;;;;3.20;1.10;;;;;;;15.06;95.43;100930.97;8357401;28;20041;-66
2021/12/31 04:16:47;;;;;;;5.30;1.10;;;;;;;15.05;94.48;100916.53;8370080;28;20076;-66
2021/12/31 04:20:49;;;;;;;3.92;1.00;;;;;;;15.02;94.14;100922.28;8361481;28;20045;-66
2021/12/31 04:29:02;;;;;;;4.38;1.15;;;;;;;14.83;95.50;100921.63;8419598;27;20468;-65
2021/12/31 04:33:02;;;;;;;6.20;1.38;;;;;;;14.80;95.10;100928.25;8400570;28;20043;-65
2021/12/31 04:37:03;;;;;;;3.13;1.38;;;;;;;14.83;95.39;100941.53;8406419;28;20025;-65
2021/12/31 04:41:04;;;;;;;1.77;1.13;;;;;;;14.79;95.82;100926.50;8385310;28;20427;-65
2021/12/31 04:45:05;;;;;;;4.70;1.10;;;;;;;14.83;95.42;100935.22;8366858;28;20045;-65
2021/12/31 04:49:06;;;;;;;3.28;1.20;;;;;;;14.80;95.59;100928.25;8384760;28;20489;-65
2021/12/31 04:53:07;;;;;;;3.97;1.30;;;;;;;14.75;95.96;100927.84;8393591;28;20059;-65
2021/12/31 04:57:07;;;;;;;1.88;1.05;;;;;;;14.76;95.72;100924.09;8417813;28;20078;-65
2021/12/31 05:01:08;;;;;;;2.97;1.27;;;;;;;14.68;96.54;100924.06;8417883;28;20484;-65
2021/12/31 05:05:08;;;;;;;5.63;1.90;;;;;;;14.78;95.77;100902.16;8385460;28;20041;-65
2021/12/31 05:09:10;;;;;;;4.68;2.10;;;;;;;14.72;95.73;100903.66;8366919;28;20056;-65
2021/12/31 05:13:15;;;;;;;4.40;2.35;;;;;;;14.73;95.76;100913.53;8351646;28;20060;-65
2021/12/31 05:17:15;;;;;;;;;;;;;;;14.63;96.06;100915.50;8364583;28;20103;-65
2021/12/31 05:21:15;;;;;;;5.55;1.70;;;;;;;14.55;96.38;100912.69;8388774;28;20325;-65
2021/12/31 05:25:17;;;;;;;4.57;1.30;;;;;;;14.60;96.42;100904.91;8394668;28;20062;-65
2021/12/31 05:29:17;;;;;;;3.72;1.20;;;;;;;14.50;96.73;100917.75;8376999;28;20033;-65
2021/12/31 05:33:17;;;;;;;3.90;1.57;;;;;;;14.57;95.98;100910.69;8400388;28;20032;-65
2021/12/31 05:37:18;;;;;;;4.10;1.60;;;;;;;14.44;97.23;100912.94;8379819;28;20833;-65
2021/12/31 05:41:18;;;;;;;4.20;1.23;;;;;;;14.39;97.25;100923.41;8345443;28;20049;-65
2021/12/31 05:45:19;;;;;;;2.63;1.67;;;;;;;14.49;96.84;100907.88;8344062;28;20037;-65
2021/12/31 05:49:20;;;;;;;2.50;1.40;;;;;;;14.44;97.39;100907.50;8355152;28;20094;-65
2021/12/31 05:53:21;;;;;;;3.70;1.42;;;;;;;14.46;96.51;100905.50;8365815;28;20037;-65
2021/12/31 05:57:21;;;;;;;3.55;1.70;;;;;;;14.43;96.73;100924.84;8361401;28;20037;-65
2021/12/31 06:01:21;;;;;;;3.53;1.50;;;;;;;14.40;97.05;100924.28;8359437;28;20498;-65
2021/12/31 06:05:25;;;;;;;3.72;1.60;;;;;;;14.22;98.08;100913.38;8339749;28;20292;-65
2021/12/31 06:09:25;;;;;;;7.00;1.65;;;;;;;14.15;98.28;100911.44;8344361;28;20416;-65
2021/12/31 06:13:26;;;;;;;2.67;1.40;;;;;;;13.89;99.87;100919.47;8342561;28;20044;-65
2021/12/31 06:17:27;;;;;;;4.13;1.70;;;;;;;13.72;100.00;100921.13;8346504;28;20450;-65
2021/12/31 06:21:27;;;;;;;6.28;2.30;;;;;;;13.62;100.00;100916.72;8364114;28;20036;-65
2021/12/31 06:25:28;;;;;;;3.83;1.90;;;;;;;13.54;100.00;100922.03;8359234;28;20055;-65
2021/12/31 06:29:28;;;;;;;4.22;1.60;;;;;;;13.47;100.00;100910.94;8363288;28;20238;-65
2021/12/31 06:33:29;;;;;;;5.82;1.92;;;;;;;13.43;100.00;100924.97;8393092;28;20036;-65
2021/12/31 06:37:29;;;;;;;8.43;2.08;;;;;;;13.35;100.00;100914.84;8370913;28;20040;-65
2021/12/31 06:41:30;;;;;;;5.50;2.20;;;;;;;13.25;100.00;100929.47;8358418;28;20512;-65
2021/12/31 06:45:30;;;;;;;4.60;2.00;;;;;;;13.17;100.00;100926.63;8353736;28;20107;-65
2021/12/31 06:49:32;;;;;;;5.15;2.05;;;;;;;13.09;100.00;100918.38;8360179;28;20497;-65
2021/12/31 06:53:32;;;;;;;4.18;1.73;;;;;;;13.07;100.00;100915.81;8358448;28;20396;-66
2021/12/31 06:57:35;;;;;;;5.65;2.20;;;;;;;13.04;100.00;100923.38;8358391;28;20033;-65
2021/12/31 07:01:35;;;;;;;6.70;1.98;;;;;;;13.02;100.00;100917.25;8358845;28;20479;-65
2021/12/31 07:05:35;;;;;;;4.13;2.03;;;;;;;13.00;100.00;100916.53;8389499;28;20048;-65
2021/12/31 07:09:36;;;;;;;3.67;1.90;;;;;;;12.99;100.00;100922.94;8391787;28;20527;-65
2021/12/31 07:13:36;;;;;;;5.73;2.10;;;;;;;12.95;100.00;100921.50;8391319;28;20039;-65
2021/12/31 07:17:36;;;;;;;2.95;1.90;;;;;;;13.08;100.00;100922.06;8351424;28;20299;-65
2021/12/31 07:21:37;;;;;;;6.00;1.77;;;;;;;12.93;100.00;100926.22;8365332;28;20033;-65
2021/12/31 07:25:38;;;;;;;4.88;1.70;;;;;;;12.84;100.00;100925.22;8357763;28;20268;-65
2021/12/31 07:29:39;;;;;;;5.22;2.20;;;;;;;12.85;100.00;100915.25;8329672;28;20187;-65
2021/12/31 07:33:41;;;;;;;4.47;1.75;;;;;;;12.96;100.00;100934.91;8367174;28;20041;-65
2021/12/31 07:37:42;;;;;;;4.75;2.20;;;;;;;13.04;100.00;100932.38;8355045;28;20049;-65
2021/12/31 07:41:42;;;;;;;4.13;2.00;;;;;;;13.04;100.00;100931.50;8350657;28;20044;-65
2021/12/31 07:45:42;;;;;;;4.63;1.92;;;;;;;13.09;100.00;100923.78;8353601;28;20524;-65
2021/12/31 07:49:43;;;;;;;4.13;1.80;;;;;;;13.10;100.00;100936.34;8352893;28;20449;-66
2021/12/31 07:53:43;;;;;;;4.72;1.67;;;;;;;13.14;100.00;100940.47;8353499;28;20116;-66
2021/12/31 07:57:44;;;;;;;5.72;1.65;;;;;;;13.20;100.00;100929.03;8365740;28;20041;-65
2021/12/31 08:01:44;;;;;;;3.65;1.25;;;;;;;13.28;99.78;100919.16;8372263;28;20040;-65
2021/12/31 08:05:45;;;;;;;6.68;1.58;;;;;;;13.35;99.21;100930.28;8327654;28;20059;-65
2021/12/31 08:09:45;;;;;;;3.50;1.23;;;;;;;13.46;98.57;100938.25;8347237;28;20466;-65
2021/12/31 08:13:45;;;;;;;2.03;1.40;;;;;;;13.54;98.21;100927.47;8357525;28;20410;-65
2021/12/31 08:17:46;;;;;;;6.60;1.60;;;;;;;13.64;97.40;100931.03;8349378;28;20287;-65
2021/12/31 08:21:46;;;;;;;3.58;1.20;;;;;;;13.74;96.96;100931.84;8347742;28;20068;-65
2021/12/31 08:25:47;;;;;;;3.58;0.90;;;;;;;13.89;96.38;100935.75;8352162;28;20081;-66
2021/12/31 08:29:47;;;;;;;3.03;1.05;;;;;;;14.02;96.01;100924.50;8356161;28;20034;-66
2021/12/31 08:33:48;;;;;;;3.03;1.20;;;;;;;14.10;94.66;100930.91;8358620;28;20036;-66
2021/12/31 08:37:48;;;;;;;3.50;1.20;;;;;;;14.13;95.09;100944.22;8351989;28;20640;-66
2021/12/31 08:41:49;;;;;;;3.05;0.90;;;;;;;14.08;95.23;100957.41;8354698;28;20094;-66
2021/12/31 08:45:49;;;;;;;5.32;1.20;;;;;;;14.05;95.38;100933.22;8348751;28;20056;-66
2021/12/31 08:49:50;;;;;;;2.83;1.23;;;;;;;14.01;95.42;100929.13;8337561;28;20603;-66
2021/12/31 08:53:51;;;;;;;2.10;1.00;;;;;;;14.02;95.29;100929.94;8334601;28;20090;-66
2021/12/31 08:57:51;;;;;;;1.73;1.00;;;;;;;13.99;95.66;100925.69;8339872;28;20281;-66
2021/12/31 09:01:52;;;;;;;3.47;1.10;;;;;;;13.99;95.81;100920.25;8329696;28;20041;-66
2021/12/31 09:05:52;;;;;;;2.72;0.95;;;;;;;14.03;95.63;100928.97;8327087;28;20049;-66
2021/12/31 09:09:53;;;;;;;1.87;1.03;;;;;;;14.01;95.86;100926.41;8324948;28;20556;-66
2021/12/31 09:13:55;;;;;;;3.55;1.30;;;;;;;14.04;96.15;100927.94;8340108;28;20635;-66
2021/12/31 09:17:55;;;;;;;5.90;2.40;;;;;;;13.99;96.57;100936.56;8344231;28;20441;-66
2021/12/31 09:21:57;;;;;;;12.17;5.13;;;;;;;13.95;97.32;100934.28;8339062;28;20118;-66
2021/12/31 09:25:58;;;;;;;14.80;5.38;;;;;;;13.92;97.63;100931.88;8335923;28;20375;-66
2021/12/31 09:29:58;;;;;;;4.00;2.10;;;;;;;13.95;97.40;100932.44;8325193;28;20044;-63
2021/12/31 09:33:59;;;;;;;4.27;2.17;;;;;;;13.99;97.31;100931.13;8336234;28;20045;-63
2021/12/31 09:38:00;;;;;;;3.38;1.48;;;;;;;13.99;97.36;100925.69;8322086;28;20276;-63
2021/12/31 09:42:01;;;;;;;9.90;4.55;;;;;;;14.07;97.02;100936.66;8324299;28;20048;-63
2021/12/31 09:46:02;;;;;;;4.15;1.92;;;;;;;14.06;97.49;100948.53;8333251;28;20405;-63
2021/12/31 09:50:02;;;;;;;3.20;1.85;;;;;;;14.10;97.32;100944.50;8343346;28;20037;-63
2021/12/31 09:54:03;;;;;;;3.28;2.25;;;;;;;14.11;97.55;100943.50;8341010;28;20421;-63
2021/12/31 09:58:06;;;;;;;4.35;1.58;;;;;;;14.17;96.51;100932.00;8352997;28;20132;-63
2021/12/31 10:02:09;;;;;;;2.63;1.50;;;;;;;14.34;95.46;100925.78;8322849;28;20485;-63
2021/12/31 10:06:12;;;;;;;3.70;1.60;;;;;;;14.35;95.04;100922.03;8333947;28;20064;-63
2021/12/31 10:10:14;;;;;;;3.63;1.65;;;;;;;14.47;94.21;100920.78;8328832;28;20045;-63
2021/12/31 10:14:15;;;;;;;4.30;1.77;;;;;;;14.55;94.21;100920.00;8318896;28;20384;-63
2021/12/31 10:18:15;;;;;;;4.33;1.83;;;;;;;14.73;92.91;100927.13;8331243;28;20060;-63
2021/12/31 10:22:18;;;;;;;1.67;1.23;;;;;;;14.86;92.20;100924.03;8348095;28;20292;-63
2021/12/31 10:26:18;;;;;;;2.47;1.10;;;;;;;15.01;91.34;100926.00;8340696;28;20053;-63
2021/12/31 10:30:22;;;;;;;5.85;1.48;;;;;;;15.23;89.82;100925.50;8340267;28;20503;-63
2021/12/31 10:34:29;;;;;;;3.28;0.82;;;;;;;15.36;89.09;100936.81;8334074;28;20563;-63
2021/12/31 10:38:39;;;;;;;2.00;0.88;;;;;;;15.52;87.26;100942.38;8351823;28;20144;-63
2021/12/31 10:42:40;;;;;;;1.60;1.10;;;;;;;15.57;87.90;100942.75;8327470;28;20041;-63
2021/12/31 10:46:42;;;;;;;1.60;1.02;;;;;;;15.63;87.66;100938.53;8315783;28;20061;-63
2021/12/31 10:50:51;;;;;;;3.15;1.20;;;;;;;15.63;87.38;100923.03;8328107;28;20048;-63
2021/12/31 10:55:03;;;;;;;1.65;1.25;;;;;;;15.83;86.46;100911.88;8325674;28;20051;-63
2021/12/31 10:59:05;;;;;;;1.67;1.20;;;;;;;15.81;86.86;100892.94;8342776;28;20041;-63
2021/12/31 11:03:06;;;;;;;1.65;1.00;;;;;;;15.76;86.75;100903.47;8336258;28;20499;-64
2021/12/31 11:07:09;;;;;;;2.78;1.30;;;;;;;15.65;87.43;100891.00;8346628;28;20051;-64
2021/12/31 11:11:10;;;;;;;3.30;1.10;;;;;;;15.52;87.47;100898.78;8339022;28;20080;-64
2021/12/31 11:15:11;;;;;;;1.65;1.20;;;;;;;15.39;89.01;100897.50;8326620;28;20045;-63
2021/12/31 11:19:12;;;;;;;1.80;1.13;;;;;;;15.49;88.08;100888.19;8347067;28;20044;-60
2021/12/31 11:23:13;;;;;;;2.45;1.55;;;;;;;15.31;89.77;100862.88;8351069;28;20103;-60
2021/12/31 11:27:37;;;;;;;5.10;2.70;;;;;;;15.37;89.71;100856.81;8344715;28;20533;-60
2021/12/31 11:31:41;;;;;;;4.22;2.55;;;;;;;15.19;91.84;100858.72;8339140;28;20132;-60
2021/12/31 11:35:45;;;;;;;2.05;1.30;;;;;;;15.11;93.18;100839.63;8320639;28;20177;-64
2021/12/31 11:39:48;;;;;;;1.98;1.23;;;;;;;15.02;94.75;100847.91;8339042;28;20153;-64
2021/12/31 11:44:09;;;;;;;6.75;1.25;;;;;;;15.10;94.43;100881.47;8360924;28;20052;-64
2021/12/31 11:53:01;;;;;;;2.65;1.70;;;;;;;15.24;93.25;100856.38;8397495;27;21015;-64
2021/12/31 11:57:03;;;;;;;6.30;2.13;;;;;;;15.29;91.75;100873.09;8372485;28;20408;-64
2021/12/31 12:01:43;;;;;;;3.90;1.58;;;;;;;15.51;88.62;100878.00;8373331;28;20040;-64
2021/12/31 12:05:46;;;;;;;2.40;1.38;;;;;;;15.55;89.07;100879.38;8345836;28;20119;-64
2021/12/31 12:14:27;;;;;;;3.05;1.98;;;;;;;15.54;91.46;100857.72;8475218;27;20376;-64
2021/12/31 12:18:52;;;;;;;2.22;1.50;;;;;;;15.80;89.03;100854.94;8439740;28;20036;-64
2021/12/31 12:22:54;;;;;;;2.55;0.98;;;;;;;15.91;87.22;100860.06;8428389;28;20096;-64
2021/12/31 12:27:01;;;;;;;1.42;1.08;;;;;;;15.80;88.09;100850.34;8419226;28;20036;-64
2021/12/31 12:31:15;;;;;;;1.90;1.52;;;;;;;15.90;86.15;100863.81;8403863;28;20036;-64
2021/12/31 12:35:22;;;;;;;3.95;2.60;;;;;;;16.07;85.03;100862.84;8438321;28;20414;-64
2021/12/31 12:39:22;;;;;;;0.98;0.80;;;;;;;16.34;81.80;100857.06;8430217;28;20049;-64
2021/12/31 12:47:35;;;;;;;1.52;0.80;;;;;;;16.56;81.43;100835.44;8466083;27;20398;-64
2021/12/31 12:51:37;;;;;;;1.33;0.65;;;;;;;16.96;79.32;100826.38;8464538;27;20051;-64
2021/12/31 12:55:37;;;;;;;1.77;1.20;;;;;;;17.10;78.50;100825.63;8440049;27;20639;-64
2021/12/31 12:59:42;;;;;;;2.03;0.70;;;;;;;17.14;78.42;100841.50;8426736;27;20049;-64
2021/12/31 13:03:47;;;;;;;;;;;;;;;17.24;77.70;100852.25;8446111;27;20114;-64
2021/12/31 13:07:51;;;;;;;2.10;1.08;;;;;;;17.18;78.30;100842.03;8444774;27;20287;-64
2021/12/31 13:11:55;;;;;;;1.75;0.90;;;;;;;17.06;78.73;100837.94;8442908;27;20135;-64
2021/12/31 13:15:56;;;;;;;2.05;0.93;;;;;;;17.02;78.64;100828.41;8431831;27;20433;-64
2021/12/31 13:20:08;;;;;;;2.65;0.90;;;;;;;17.03;78.35;100827.38;8429325;27;20043;-64
2021/12/31 13:24:17;;;;;;;1.30;0.80;;;;;;;16.98;79.34;100824.28;8418563;27;20044;-64
2021/12/31 13:28:20;;;;;;;4.20;0.77;;;;;;;16.95;79.99;100835.56;8422682;27;20522;-64
2021/12/31 13:32:22;;;;;;;2.80;0.77;;;;;;;17.04;79.96;100819.00;8424826;27;20306;-64
2021/12/31 13:36:25;;;;;;;1.20;0.60;;;;;;;17.20;79.69;100807.19;8429923;27;20335;-64
2021/12/31 13:40:26;;;;;;;1.88;0.70;;;;;;;17.16;79.44;100811.28;8431625;27;20066;-64
2021/12/31 13:44:31;;;;;;;1.05;0.60;;;;;;;17.02;80.08;100821.03;8429638;27;20033;-64
2021/12/31 13:48:32;;;;;;;4.85;0.65;;;;;;;17.11;79.87;100813.69;8424687;27;20032;-64
2021/12/31 13:52:34;;;;;;;1.35;0.80;;;;;;;17.23;79.21;100824.06;8418019;27;20078;-64
2021/12/31 13:56:45;;;;;;;1.67;0.70;;;;;;;17.25;79.43;100834.81;8408011;28;20523;-64
2021/12/31 14:00:45;;;;;;;3.28;1.02;;;;;;;17.12;80.74;100854.50;8412429;28;20051;-64
2021/12/31 14:04:58;;;;;;;2.05;0.60;;;;;;;17.08;81.74;100860.50;8400430;28;20049;-64
2021/12/31 14:08:59;;;;;;;1.98;0.88;;;;;;;17.06;81.03;100859.81;8406646;27;20044;-64
2021/12/31 14:13:04;;;;;;;1.75;0.90;;;;;;;17.16;80.95;100876.84;8402955;27;20051;-64
2021/12/31 14:17:04;;;;;;;2.83;1.15;;;;;;;17.06;81.67;100877.06;8403111;27;20161;-64
2021/12/31 14:21:05;;;;;;;4.70;1.03;;;;;;;17.06;81.71;100870.72;8392798;27;20044;-64
2021/12/31 14:25:06;;;;;;;3.63;1.90;;;;;;;17.03;82.79;100877.41;8412949;27;20310;-64
2021/12/31 14:29:07;;;;;;;5.32;1.40;;;;;;;17.07;81.17;100877.91;8419251;27;20067;-64
2021/12/31 14:33:08;;;;;;;5.30;1.70;;;;;;;16.95;81.34;100876.53;8424841;27;20040;-64
2021/12/31 14:37:12;;;;;;;5.63;2.15;;;;;;;16.82;81.71;100879.81;8419026;27;20035;-64
2021/12/31 14:41:21;;;;;;;2.43;1.03;;;;;;;16.62;82.32;100883.06;8403772;28;20033;-64
2021/12/31 14:45:23;;;;;;;3.08;1.00;;;;;;;16.44;82.90;100894.13;8401884;27;20048;-64
2021/12/31 14:49:25;;;;;;;2.05;1.10;;;;;;;16.53;82.61;100897.75;8405087;27;20028;-64
2021/12/31 14:53:25;;;;;;;2.10;1.05;;;;;;;16.44;83.27;100907.78;8394273;27;20031;-64
2021/12/31 14:57:26;;;;;;;5.13;1.20;;;;;;;16.38;83.04;100913.03;8407593;27;20156;-64
2021/12/31 15:01:27;;;;;;;4.38;1.08;;;;;;;16.26;83.48;100915.25;8384011;28;20044;-64
2021/12/31 15:05:27;;;;;;;1.33;0.73;;;;;;;16.18;84.06;100917.06;8390321;27;20424;-64
2021/12/31 15:09:28;;;;;;;1.55;1.27;;;;;;;16.06;84.49;100929.31;8393061;28;20079;-64
2021/12/31 15:13:28;;;;;;;2.05;1.08;;;;;;;15.90;85.18;100945.63;8386599;28;20052;-64
2021/12/31 15:17:29;;;;;;;2.33;1.33;;;;;;;15.85;85.95;100948.00;8389319;28;20511;-63
2021/12/31 15:21:30;;;;;;;2.35;1.08;;;;;;;15.88;85.78;100958.56;8409160;27;20251;-64
2021/12/31 15:25:30;;;;;;;2.28;1.02;;;;;;;15.86;86.23;100966.06;8388881;28;20473;-64
2021/12/31 15:29:30;;;;;;;3.88;1.30;;;;;;;15.86;86.32;100977.84;8391642;27;20511;-64
2021/12/31 15:33:31;;;;;;;2.80;1.13;;;;;;;15.86;86.61;100976.97;8390879;27;20032;-64
2021/12/31 15:37:32;;;;;;;4.45;1.40;;;;;;;15.90;86.39;100983.81;8402210;27;20054;-64
2021/12/31 15:41:39;;;;;;;4.05;1.40;;;;;;;15.96;85.90;100983.16;8401100;27;20036;-64
2021/12/31 15:45:41;;;;;;;4.57;1.23;;;;;;;15.95;86.78;100978.72;8386527;28;20043;-64
2021/12/31 15:49:42;;;;;;;1.55;1.17;;;;;;;16.03;85.85;100984.19;8378273;28;20040;-64
2021/12/31 15:53:42;;;;;;;3.10;1.60;;;;;;;15.99;86.66;100993.72;8411893;27;20038;-64
2021/12/31 15:57:43;;;;;;;4.40;1.50;;;;;;;16.01;86.22;100994.44;8397359;27;20370;-64
2021/12/31 16:01:43;;;;;;;4.77;1.53;;;;;;;15.90;87.46;100983.81;8405734;27;20564;-64
2021/12/31 16:05:44;;;;;;;4.95;1.98;;;;;;;15.93;87.64;100989.81;8394986;28;20283;-64
2021/12/31 16:09:44;;;;;;;3.35;1.80;;;;;;;15.87;88.01;101000.50;8395713;28;20029;-64
2021/12/31 16:13:45;;;;;;;3.38;1.80;;;;;;;15.90;87.94;101006.50;8401758;28;20028;-64
2021/12/31 16:17:47;;;;;;;16.20;8.45;;;;;;;15.83;88.74;101012.75;8400665;28;20365;-64
2021/12/31 16:21:47;;;;;;;6.13;3.53;;;;;;;15.80;88.96;101007.63;8407338;27;20089;-64
2021/12/31 16:25:47;;;;;;;26.58;13.07;;;;;;;15.82;88.95;101016.50;8385294;28;20504;-64
2021/12/31 16:29:57;;;;;;;28.67;13.13;;;;;;;15.77;90.01;101011.53;8384623;28;20427;-64
2021/12/31 16:33:57;;;;;;;46.63;27.60;;;;;;;15.71;90.90;101018.47;8392101;28;20029;-64
2021/12/31 16:37:57;;;;;;;8.27;6.03;;;;;;;15.70;91.43;101021.34;8412187;27;20032;-64
2021/12/31 16:41:58;;;;;;;10.82;6.13;;;;;;;15.71;91.44;101021.19;8401695;28;20495;-64
2021/12/31 16:45:59;;;;;;;7.78;4.50;;;;;;;15.67;92.11;101028.00;8399063;28;20512;-64
2021/12/31 16:50:00;;;;;;;8.63;3.35;;;;;;;15.73;92.16;101031.09;8404135;28;20044;-64
2021/12/31 16:54:00;;;;;;;8.68;3.08;;;;;;;15.63;93.10;101034.78;8421010;28;20123;-64
2021/12/31 16:58:01;;;;;;;6.85;3.08;;;;;;;15.56;93.68;101025.53;8397913;28;20097;-64
2021/12/31 17:02:01;;;;;;;6.68;4.38;;;;;;;15.52;94.02;101026.88;8410004;27;20060;-64
2021/12/31 17:06:02;;;;;;;12.77;7.68;;;;;;;15.50;94.33;101037.06;8399619;28;20043;-64
2021/12/31 17:10:02;;;;;;;14.23;9.10;;;;;;;15.49;94.55;101040.81;8395778;28;20212;-64
2021/12/31 17:14:03;;;;;;;11.50;5.47;;;;;;;15.50;94.45;101050.69;8383471;27;20082;-64
2021/12/31 17:18:04;;;;;;;7.30;3.53;;;;;;;15.57;94.21;101062.69;8378286;28;20029;-64
2021/12/31 17:22:05;;;;;;;5.75;3.28;;;;;;;15.57;94.53;101070.88;8422618;27;20036;-64
2021/12/31 17:26:05;;;;;;;5.80;2.92;;;;;;;15.55;95.16;101078.34;8400878;28;20176;-64
2021/12/31 17:30:06;;;;;;;6.70;3.78;;;;;;;15.59;94.93;101085.16;8379561;28;20052;-64
2021/12/31 17:34:06;;;;;;;7.70;3.90;;;;;;;15.58;95.58;101094.38;8401779;28;20507;-64
2021/12/31 17:38:08;;;;;;;11.73;4.43;;;;;;;15.58;95.99;101097.09;8403528;27;20474;-64
2021/12/31 17:42:08;;;;;;;7.70;3.55;;;;;;;15.56;96.46;101096.38;8393279;28;20050;-64
2021/12/31 17:46:10;;;;;;;3.85;3.33;;;;;;;15.49;97.19;101100.78;8413495;28;20044;-64
2021/12/31 17:50:10;;;;;;;9.23;4.70;;;;;;;15.52;96.76;101105.91;8407023;27;20050;-64
2021/12/31 17:54:11;;;;;;;7.47;3.67;;;;;;;15.44;97.29;101114.00;8386593;28;20032;-64
2021/12/31 17:58:12;;;;;;;10.20;3.28;;;;;;;15.42;97.56;101121.50;8417228;27;20055;-64
2021/12/31 18:02:12;;;;;;;4.45;2.92;;;;;;;15.39;97.60;101110.03;8416373;27;20044;-64
2021/12/31 18:06:13;;;;;;;5.57;3.20;;;;;;;15.38;98.13;101120.09;8415110;27;20115;-64
2021/12/31 18:10:13;;;;;;;7.75;3.28;;;;;;;15.38;98.00;101131.00;8395888;27;20042;-64
2021/12/31 18:14:13;;;;;;;5.72;3.20;;;;;;;15.38;98.10;101139.19;8382845;28;20717;-64
2021/12/31 18:18:14;;;;;;;7.03;2.45;;;;;;;15.36;98.86;101146.63;8382451;28;20571;-64
2021/12/31 18:22:14;;;;;;;4.85;3.13;;;;;;;15.37;98.58;101151.06;8406880;27;20484;-64
2021/12/31 18:26:15;;;;;;;5.38;2.85;;;;;;;15.37;99.00;101150.25;8383408;28;20040;-64
2021/12/31 18:30:15;;;;;;;9.80;2.88;;;;;;;15.42;98.87;101167.81;8384007;28;20127;-64
2021/12/31 18:34:16;;;;;;;9.80;3.10;;;;;;;15.39;99.27;101186.34;8382362;27;20127;-64
2021/12/31 18:38:17;;;;;;;3.35;3.03;;;;;;;15.37;100.00;101189.22;8404971;28;20040;-64
2021/12/31 18:42:17;;;;;;;9.80;3.63;;;;;;;15.36;100.00;101195.66;8408832;28;20040;-64
2021/12/31 18:46:25;;;;;;;6.05;3.40;;;;;;;15.30;100.00;101201.72;8402602;28;20105;-63
2021/12/31 18:50:27;;;;;;;5.88;3.63;;;;;;;15.32;100.00;101197.00;8401817;27;20032;-63
2021/12/31 18:54:27;;;;;;;8.10;3.85;;;;;;;15.27;100.00;101204.75;8389730;28;20428;-63
2021/12/31 18:58:27;;;;;;;6.72;3.60;;;;;;;15.20;100.00;101209.13;8399087;28;20403;-63
2021/12/31 19:02:29;;;;;;;7.65;3.55;;;;;;;15.23;100.00;101219.72;8393678;28;20039;-63
2021/12/31 19:06:30;;;;;;;8.25;3.47;;;;;;;15.25;100.00;101223.13;8402865;27;20044;-63